createdAt,value
2018-06-11T00:01:21.498Z,20.66
2018-06-11T00:04:24.649Z,20.68
2018-06-11T00:07:27.747Z,20.65
2018-06-11T00:10:30.873Z,20.59
2018-06-11T00:13:34.116Z,20.59
2018-06-11T00:16:37.290Z,20.53
2018-06-11T00:19:40.455Z,20.40
2018-06-11T00:22:43.689Z,20.39
2018-06-11T00:25:46.935Z,20.41
2018-06-11T00:28:50.340Z,20.38
2018-06-11T00:31:53.625Z,20.34
2018-06-11T00:34:56.911Z,20.25
2018-06-11T00:38:00.154Z,20.24
2018-06-11T00:41:03.325Z,20.24
2018-06-11T00:44:07.500Z,20.21
2018-06-11T00:47:10.697Z,20.17
2018-06-11T00:50:14.958Z,20.07
2018-06-11T00:53:18.007Z,20.05
2018-06-11T00:56:21.180Z,20.05
2018-06-11T00:59:24.250Z,20.11
2018-06-11T01:02:27.408Z,20.11
2018-06-11T01:05:30.776Z,20.07
2018-06-11T01:08:34.020Z,19.97
2018-06-11T01:11:37.312Z,19.80
2018-06-11T01:14:40.453Z,19.74
2018-06-11T01:17:43.654Z,19.75
2018-06-11T01:20:46.806Z,19.57
2018-06-11T01:23:49.941Z,19.22
2018-06-11T01:26:53.105Z,18.95
2018-06-11T01:29:56.160Z,18.81
2018-06-11T01:32:59.353Z,18.72
2018-06-11T01:36:02.661Z,18.67
2018-06-11T01:39:07.210Z,18.62
2018-06-11T01:42:10.332Z,18.63
2018-06-11T01:45:13.351Z,18.59
2018-06-11T01:48:16.688Z,18.52
2018-06-11T01:51:19.743Z,18.47
2018-06-11T01:54:22.868Z,18.46
2018-06-11T01:57:25.923Z,18.50
2018-06-11T02:00:29.065Z,18.47
2018-06-11T02:03:32.176Z,18.43
2018-06-11T02:06:35.287Z,18.48
2018-06-11T02:09:38.276Z,18.51
2018-06-11T02:12:41.475Z,18.46
2018-06-11T02:15:44.650Z,18.43
2018-06-11T02:18:47.673Z,18.40
2018-06-11T02:21:50.884Z,18.42
2018-06-11T02:24:54.068Z,18.48
2018-06-11T02:27:57.242Z,18.46
2018-06-11T02:31:00.315Z,18.44
2018-06-11T02:34:03.520Z,18.42
2018-06-11T02:40:07.352Z,18.44
2018-06-11T02:43:10.591Z,18.42
2018-06-11T02:46:13.662Z,18.35
2018-06-11T02:49:16.840Z,18.28
2018-06-11T02:52:19.996Z,18.16
2018-06-11T02:55:23.015Z,18.03
2018-06-11T02:58:26.210Z,17.92
2018-06-11T03:01:29.316Z,17.83
2018-06-11T03:04:33.049Z,17.77
2018-06-11T03:07:36.230Z,17.79
2018-06-11T03:10:39.374Z,17.83
2018-06-11T03:13:42.583Z,17.81
2018-06-11T03:16:46.730Z,17.75
2018-06-11T03:19:49.818Z,17.72
2018-06-11T03:22:53.150Z,17.77
2018-06-11T03:25:56.266Z,17.82
2018-06-11T03:28:59.284Z,17.85
2018-06-11T03:32:02.665Z,17.86
2018-06-11T03:35:05.735Z,17.91
2018-06-11T03:38:08.734Z,17.96
2018-06-11T03:41:11.906Z,18.02
2018-06-11T03:44:15.057Z,18.09
2018-06-11T03:47:18.200Z,18.17
2018-06-11T03:50:21.334Z,18.30
2018-06-11T03:53:24.539Z,18.41
2018-06-11T03:56:27.693Z,18.52
2018-06-11T03:59:30.766Z,18.67
2018-06-11T04:02:33.821Z,18.80
2018-06-11T04:05:37.005Z,18.98
2018-06-11T04:08:40.166Z,18.99
2018-06-11T04:11:43.302Z,19.02
2018-06-11T04:14:46.424Z,19.08
2018-06-11T04:17:49.536Z,19.09
2018-06-11T04:20:52.723Z,19.41
2018-06-11T04:23:55.790Z,20.35
2018-06-11T04:26:58.949Z,20.70
2018-06-11T04:30:02.150Z,21.11
2018-06-11T04:33:05.396Z,21.67
2018-06-11T04:36:08.417Z,21.71
2018-06-11T04:39:11.569Z,21.67
2018-06-11T04:42:14.647Z,21.69
2018-06-11T04:45:17.782Z,20.96
2018-06-11T04:48:20.765Z,20.69
2018-06-11T04:51:23.990Z,20.76
2018-06-11T04:54:27.092Z,20.76
2018-06-11T04:57:30.098Z,20.52
2018-06-11T05:00:33.155Z,20.81
2018-06-11T05:03:36.300Z,20.68
2018-06-11T05:06:39.354Z,20.69
2018-06-11T05:09:42.408Z,22.57
2018-06-11T05:12:45.675Z,24.30
2018-06-11T05:15:48.783Z,24.20
2018-06-11T05:18:52.054Z,23.77
2018-06-11T05:21:55.506Z,24.42
2018-06-11T05:24:58.874Z,25.22
2018-06-11T05:28:02.221Z,25.29
2018-06-11T05:31:05.397Z,25.23
2018-06-11T05:34:08.440Z,24.69
2018-06-11T05:37:11.690Z,24.25
2018-06-11T05:40:15.051Z,24.34
2018-06-11T05:43:18.361Z,22.96
2018-06-11T05:46:21.691Z,22.54
2018-06-11T05:49:24.804Z,23.02
2018-06-11T05:52:27.954Z,24.50
2018-06-11T05:55:31.001Z,24.63
2018-06-11T05:58:34.108Z,23.66
2018-06-11T06:01:37.184Z,23.16
2018-06-11T06:04:40.329Z,23.61
2018-06-11T06:07:43.449Z,23.88
2018-06-11T06:10:46.707Z,22.55
2018-06-11T06:13:50.771Z,23.23
2018-06-11T06:16:53.850Z,23.92
2018-06-11T06:19:57.801Z,23.99
2018-06-11T06:23:00.862Z,23.41
2018-06-11T06:26:05.456Z,22.99
2018-06-11T06:29:08.643Z,22.68
2018-06-11T06:32:11.883Z,22.55
2018-06-11T06:35:14.919Z,22.86
2018-06-11T06:38:18.346Z,23.15
2018-06-11T06:41:21.617Z,23.68
2018-06-11T06:44:25.037Z,24.67
2018-06-11T06:47:28.350Z,24.03
2018-06-11T06:50:31.659Z,22.48
2018-06-11T06:53:34.903Z,21.98
2018-06-11T06:56:38.275Z,21.87
2018-06-11T06:59:41.711Z,21.50
2018-06-11T07:02:45.084Z,21.73
2018-06-11T07:05:49.432Z,21.48
2018-06-11T07:08:53.342Z,21.39
2018-06-11T07:11:56.374Z,21.49
2018-06-11T07:14:59.502Z,21.55
2018-06-11T07:18:02.698Z,21.61
2018-06-11T07:21:05.791Z,21.90
2018-06-11T07:24:09.135Z,22.66
2018-06-11T07:27:13.518Z,22.37
2018-06-11T07:30:16.598Z,22.94
2018-06-11T07:33:20.834Z,22.93
2018-06-11T07:36:24.144Z,23.10
2018-06-11T07:39:30.842Z,23.51
2018-06-11T07:42:34.047Z,23.75
2018-06-11T07:45:38.388Z,23.87
2018-06-11T07:48:42.614Z,24.81
2018-06-11T07:51:48.191Z,25.57
2018-06-11T07:54:51.707Z,25.52
2018-06-11T07:57:55.073Z,25.20
2018-06-11T08:00:59.422Z,25.16
2018-06-11T08:04:02.835Z,24.89
2018-06-11T08:07:06.591Z,24.30
2018-06-11T08:10:09.965Z,24.08
2018-06-11T08:13:13.872Z,23.75
2018-06-11T08:16:17.026Z,23.54
2018-06-11T08:19:20.384Z,23.54
2018-06-11T08:22:24.725Z,23.79
2018-06-11T08:25:27.988Z,23.76
2018-06-11T08:28:31.515Z,23.21
2018-06-11T08:31:35.672Z,22.74
2018-06-11T08:34:39.002Z,22.87
2018-06-11T08:37:42.424Z,22.98
2018-06-11T08:40:46.043Z,22.85
2018-06-11T08:43:49.392Z,23.11
2018-06-11T08:46:52.616Z,22.69
2018-06-11T08:49:56.806Z,22.98
2018-06-11T08:52:59.987Z,22.83
2018-06-11T08:56:03.320Z,22.41
2018-06-11T08:59:07.517Z,23.01
2018-06-11T09:02:11.166Z,23.75
2018-06-11T09:05:14.662Z,24.04
2018-06-11T09:08:18.217Z,23.67
2018-06-11T09:11:21.514Z,23.89
2018-06-11T09:14:25.929Z,24.04
2018-06-11T09:17:29.193Z,23.58
2018-06-11T09:20:33.226Z,23.07
2018-06-11T09:23:36.229Z,23.54
2018-06-11T09:26:39.582Z,23.75
2018-06-11T09:29:42.906Z,24.22
2018-06-11T09:32:46.319Z,24.46
2018-06-11T09:35:49.673Z,23.69
2018-06-11T09:38:53.101Z,23.34
2018-06-11T09:41:58.400Z,23.54
2018-06-11T09:45:03.782Z,23.94
2018-06-11T09:48:07.065Z,23.97
2018-06-11T09:51:10.544Z,24.58
2018-06-11T09:54:14.149Z,24.87
2018-06-11T09:57:17.822Z,25.41
2018-06-11T10:00:26.937Z,25.35
2018-06-11T10:03:30.805Z,25.57
2018-06-11T10:06:34.784Z,25.49
2018-06-11T10:09:38.336Z,24.98
2018-06-11T10:12:42.014Z,25.16
2018-06-11T10:15:45.961Z,25.46
2018-06-11T10:18:49.453Z,25.84
2018-06-11T10:21:53.044Z,25.24
2018-06-11T10:24:56.417Z,25.65
2018-06-11T10:27:59.905Z,25.95
2018-06-11T10:31:03.305Z,25.45
2018-06-11T10:34:06.582Z,25.53
2018-06-11T10:37:09.740Z,25.36
2018-06-11T10:40:13.009Z,24.71
2018-06-11T10:43:16.378Z,24.43
2018-06-11T10:46:19.698Z,24.89
2018-06-11T10:49:23.174Z,24.85
2018-06-11T10:52:26.543Z,25.18
2018-06-11T10:55:29.680Z,26.18
2018-06-11T10:58:32.883Z,26.50
2018-06-11T11:01:36.404Z,27.46
2018-06-11T11:04:40.229Z,27.21
2018-06-11T11:07:43.928Z,27.80
2018-06-11T11:10:47.460Z,26.61
2018-06-11T11:13:50.936Z,25.61
2018-06-11T11:16:54.542Z,26.12
2018-06-11T11:19:57.748Z,27.13
2018-06-11T11:23:00.923Z,26.52
2018-06-11T11:26:04.022Z,26.31
2018-06-11T11:29:08.138Z,25.96
2018-06-11T11:32:11.367Z,26.21
2018-06-11T11:35:14.709Z,25.93
2018-06-11T11:38:18.044Z,26.07
2018-06-11T11:41:21.648Z,26.62
2018-06-11T11:44:26.099Z,25.39
2018-06-11T11:47:29.510Z,25.61
2018-06-11T11:50:33.025Z,25.49
2018-06-11T11:53:36.402Z,25.35
2018-06-11T11:56:40.780Z,25.05
2018-06-11T11:59:43.889Z,25.43
2018-06-11T12:02:47.586Z,25.26
2018-06-11T12:05:50.900Z,25.11
2018-06-11T12:08:54.037Z,24.91
2018-06-11T12:11:57.208Z,24.70
2018-06-11T12:15:00.461Z,24.50
2018-06-11T12:18:03.637Z,23.89
2018-06-11T12:21:07.023Z,23.62
2018-06-11T12:24:10.119Z,23.63
2018-06-11T12:27:13.422Z,23.25
2018-06-11T12:30:16.813Z,23.28
2018-06-11T12:33:19.867Z,23.38
2018-06-11T12:36:23.089Z,23.30
2018-06-11T12:39:26.469Z,23.21
2018-06-11T12:42:29.718Z,23.17
2018-06-11T12:45:32.830Z,23.19
2018-06-11T12:48:35.969Z,23.21
2018-06-11T12:51:39.283Z,22.75
2018-06-11T12:54:42.690Z,22.50
2018-06-11T12:57:46.058Z,22.34
2018-06-11T13:00:49.372Z,22.31
2018-06-11T13:03:52.582Z,22.12
2018-06-11T13:06:58.001Z,22.02
2018-06-11T13:10:04.515Z,21.99
2018-06-11T13:13:08.841Z,21.75
2018-06-11T13:16:12.330Z,21.77
2018-06-11T13:19:15.763Z,21.74
2018-06-11T13:22:19.252Z,21.69
2018-06-11T13:25:22.957Z,21.59
2018-06-11T13:28:26.444Z,21.52
2018-06-11T13:31:29.753Z,21.48
2018-06-11T13:34:33.181Z,21.41
2018-06-11T13:37:36.215Z,21.34
2018-06-11T13:40:39.419Z,21.29
2018-06-11T13:43:42.928Z,21.27
2018-06-11T13:46:47.270Z,21.17
2018-06-11T13:49:50.873Z,21.14
2018-06-11T13:52:56.259Z,21.03
2018-06-11T13:56:00.557Z,20.98
2018-06-11T13:59:03.982Z,20.84
2018-06-11T14:02:07.267Z,20.78
2018-06-11T14:05:10.520Z,20.78
2018-06-11T14:08:13.990Z,20.65
2018-06-11T14:11:18.071Z,20.58
2018-06-11T14:14:21.272Z,20.57
2018-06-11T14:17:24.445Z,20.52
2018-06-11T14:20:27.669Z,20.47
2018-06-11T14:23:30.757Z,20.43
2018-06-11T14:26:33.922Z,20.46
2018-06-11T14:29:38.215Z,20.35
2018-06-11T14:32:43.377Z,20.11
2018-06-11T14:35:46.522Z,19.74
2018-06-11T14:38:49.805Z,19.26
2018-06-11T14:41:53.804Z,18.97
2018-06-11T14:44:57.115Z,18.76
2018-06-11T14:48:00.394Z,18.60
2018-06-11T14:51:03.616Z,18.48
2018-06-11T14:54:06.902Z,18.41
2018-06-11T14:57:10.152Z,18.38
2018-06-11T15:00:13.437Z,18.34
2018-06-11T15:03:17.190Z,18.36
2018-06-11T15:06:20.454Z,18.33
2018-06-11T15:09:23.662Z,18.36
2018-06-11T15:12:28.000Z,18.33
2018-06-11T15:15:31.339Z,18.41
2018-06-11T15:18:34.343Z,18.46
2018-06-11T15:21:37.409Z,18.48
2018-06-11T15:24:40.671Z,18.50
2018-06-11T15:27:44.171Z,18.65
2018-06-11T15:30:47.310Z,18.92
2018-06-11T15:33:50.929Z,18.85
2018-06-11T15:36:54.379Z,18.85
2018-06-11T15:39:58.836Z,18.91
2018-06-11T15:43:02.244Z,18.93
2018-06-11T15:46:06.550Z,18.92
2018-06-11T15:49:09.871Z,18.89
2018-06-11T15:52:13.209Z,19.07
2018-06-11T15:55:16.708Z,19.05
2018-06-11T15:58:20.372Z,19.15
2018-06-11T16:01:23.723Z,19.28
2018-06-11T16:04:29.453Z,19.21
2018-06-11T16:07:32.859Z,19.15
2018-06-11T16:10:35.956Z,19.13
2018-06-11T16:13:40.212Z,19.27
2018-06-11T16:16:43.648Z,19.31
2018-06-11T16:19:47.208Z,19.32
2018-06-11T16:22:51.368Z,19.31
2018-06-11T16:25:54.647Z,19.11
2018-06-11T16:28:58.062Z,19.12
2018-06-11T16:32:08.271Z,18.97
2018-06-11T16:35:11.867Z,18.87
2018-06-11T16:38:14.980Z,18.96
2018-06-11T16:41:18.061Z,18.93
2018-06-11T16:44:21.232Z,18.86
2018-06-11T16:47:24.323Z,18.79
2018-06-11T16:50:27.439Z,18.67
2018-06-11T16:53:30.587Z,18.51
2018-06-11T16:56:33.628Z,18.33
2018-06-11T16:59:38.866Z,18.21
2018-06-11T17:02:42.222Z,18.14
2018-06-11T17:05:45.750Z,18.14
2018-06-11T17:08:48.895Z,18.15
2018-06-11T17:11:51.928Z,18.12
2018-06-11T17:14:55.125Z,18.12
2018-06-11T17:17:58.219Z,18.17
2018-06-11T17:21:01.420Z,18.13
2018-06-11T17:24:04.646Z,18.10
2018-06-11T17:27:07.950Z,18.19
2018-06-11T17:30:11.102Z,18.18
2018-06-11T17:33:14.620Z,18.21
2018-06-11T17:36:18.098Z,18.18
2018-06-11T17:39:21.493Z,18.21
2018-06-11T17:42:25.018Z,18.18
2018-06-11T17:45:29.103Z,18.13
2018-06-11T17:48:32.219Z,18.09
2018-06-11T17:51:35.545Z,18.11
2018-06-11T17:54:38.753Z,18.15
2018-06-11T17:57:41.928Z,18.13
2018-06-11T18:00:45.074Z,18.12
2018-06-11T18:03:48.120Z,18.12
2018-06-11T18:06:51.213Z,18.13
2018-06-11T18:09:55.353Z,18.16
2018-06-11T18:12:58.425Z,18.13
2018-06-11T18:16:01.658Z,18.07
2018-06-11T18:19:05.175Z,17.99
2018-06-11T18:22:08.584Z,18.04
2018-06-11T18:25:12.127Z,18.01
2018-06-11T18:28:15.504Z,18.07
2018-06-11T18:31:20.059Z,18.03
2018-06-11T18:34:23.413Z,17.98
2018-06-11T18:37:26.977Z,17.97
2018-06-11T18:40:30.205Z,18.00
2018-06-11T18:43:33.865Z,18.01
2018-06-11T18:46:37.452Z,17.98
2018-06-11T18:49:40.684Z,17.98
2018-06-11T18:52:43.796Z,17.99
2018-06-11T18:55:47.014Z,17.93
2018-06-11T18:58:50.323Z,17.86
2018-06-11T19:01:53.566Z,17.83
2018-06-11T19:04:56.871Z,17.80
2018-06-11T19:07:59.993Z,17.81
2018-06-11T19:11:03.350Z,17.78
2018-06-11T19:14:06.702Z,17.78
2018-06-11T19:17:10.104Z,17.81
2018-06-11T19:20:13.342Z,17.67
2018-06-11T19:23:16.598Z,17.46
2018-06-11T19:26:20.659Z,17.28
2018-06-11T19:29:23.766Z,17.16
2018-06-11T19:32:27.265Z,17.06
2018-06-11T19:35:30.973Z,16.98
2018-06-11T19:38:34.225Z,16.92
2018-06-11T19:41:37.377Z,16.85
2018-06-11T19:44:40.568Z,16.83
2018-06-11T19:47:44.013Z,16.76
2018-06-11T19:50:47.307Z,16.71
2018-06-11T19:53:51.151Z,16.67
2018-06-11T19:56:54.425Z,16.60
2018-06-11T19:59:57.637Z,16.53
2018-06-11T20:03:00.846Z,16.50
2018-06-11T20:06:03.912Z,16.46
2018-06-11T20:09:07.619Z,16.46
2018-06-11T20:12:10.899Z,16.42
2018-06-11T20:15:14.012Z,16.46
2018-06-11T20:18:17.079Z,16.47
2018-06-11T20:21:20.335Z,16.47
2018-06-11T20:24:23.709Z,16.54
2018-06-11T20:27:26.934Z,16.52
2018-06-11T20:30:30.441Z,16.47
2018-06-11T20:33:33.789Z,16.43
2018-06-11T20:36:36.826Z,16.44
2018-06-11T20:39:39.881Z,16.41
2018-06-11T20:42:42.947Z,16.44
2018-06-11T20:45:46.133Z,16.44
2018-06-11T20:48:49.258Z,16.42
2018-06-11T20:51:52.518Z,16.35
2018-06-11T20:54:55.832Z,16.29
2018-06-11T20:57:59.128Z,16.29
2018-06-11T21:01:03.288Z,16.29
2018-06-11T21:04:06.746Z,16.30
2018-06-11T21:07:09.865Z,16.30
2018-06-11T21:10:13.225Z,16.25
2018-06-11T21:13:16.337Z,16.23
2018-06-11T21:16:19.483Z,16.17
2018-06-11T21:19:22.729Z,16.13
2018-06-11T21:22:25.860Z,16.12
2018-06-11T21:25:29.023Z,16.08
2018-06-11T21:28:32.217Z,16.09
2018-06-11T21:31:35.292Z,16.09
2018-06-11T21:34:38.374Z,16.04
2018-06-11T21:37:41.477Z,16.05
2018-06-11T21:40:44.826Z,16.04
2018-06-11T21:43:48.032Z,16.03
2018-06-11T21:46:51.225Z,15.99
2018-06-11T21:49:54.397Z,15.92
2018-06-11T21:52:57.475Z,15.91
2018-06-11T21:56:00.666Z,15.90
2018-06-11T21:59:04.897Z,15.90
2018-06-11T22:02:08.000Z,15.87
2018-06-11T22:05:11.126Z,15.93
2018-06-11T22:08:14.144Z,15.96
2018-06-11T22:11:17.191Z,16.02
2018-06-11T22:14:20.333Z,16.01
2018-06-11T22:17:23.521Z,16.03
2018-06-11T22:20:26.730Z,16.03
2018-06-11T22:23:29.912Z,16.05
2018-06-11T22:26:33.287Z,16.11
2018-06-11T22:29:36.539Z,16.03
2018-06-11T22:32:39.807Z,15.97
2018-06-11T22:35:43.654Z,15.92
2018-06-11T22:38:48.095Z,15.92
2018-06-11T22:41:52.341Z,15.92
2018-06-11T22:45:01.988Z,15.89
2018-06-11T22:48:05.683Z,15.82
2018-06-11T22:51:09.128Z,15.81
2018-06-11T22:54:13.126Z,15.80
2018-06-11T22:57:16.325Z,15.85
2018-06-11T23:00:38.584Z,15.83
2018-06-11T23:03:41.934Z,15.81
2018-06-11T23:06:46.140Z,15.80
2018-06-11T23:09:49.513Z,15.84
2018-06-11T23:12:53.234Z,15.81
2018-06-11T23:15:56.515Z,15.88
2018-06-11T23:18:59.995Z,15.90
2018-06-11T23:22:03.624Z,15.94
2018-06-11T23:25:07.561Z,15.98
2018-06-11T23:28:10.597Z,15.94
2018-06-11T23:31:13.769Z,15.90
2018-06-11T23:34:16.959Z,15.92
2018-06-11T23:37:20.110Z,15.94
2018-06-11T23:40:23.175Z,15.78
2018-06-11T23:43:27.340Z,15.76
2018-06-11T23:46:30.497Z,15.79
2018-06-11T23:49:33.649Z,15.87
2018-06-11T23:52:36.779Z,15.86
2018-06-11T23:55:40.830Z,15.94
2018-06-11T23:58:43.998Z,15.96
